Time;durP1;ratioP1;P1;durP2;ratioP2;P2;SDS_P1;SDS_P2;PMS_P1;PMS_P2;Temp;Humidity;BMP_temperature;BMP_pressure;BME280_temperature;BME280_humidity;BME280_pressure;Samples;Min_cycle;Max_cycle;Signal;HPM_P1;HPM_P2
2022/01/07 00:01:22;;;;;;;11.30;3.67;;;;;;;-146.64;100.00;39933.41;5123892;27;20381;-76
2022/01/07 00:03:48;;;;;;;17.67;4.35;;;;;;;-146.64;100.00;39921.13;5106210;27;20019;-75
2022/01/07 00:06:14;;;;;;;12.77;3.53;;;;;;;-146.64;100.00;39931.34;5132169;27;20037;-76
2022/01/07 00:08:39;;;;;;;10.05;3.05;;;;;;;-146.64;100.00;39927.25;5100519;27;20474;-76
2022/01/07 00:11:05;;;;;;;31.98;3.47;;;;;;;-146.64;100.00;39912.94;5113304;27;20030;-75
2022/01/07 00:13:30;;;;;;;11.20;3.17;;;;;;;-146.64;100.00;39886.31;5115031;27;20127;-75
2022/01/07 00:15:56;;;;;;;11.52;3.33;;;;;;;-146.64;100.00;39943.63;5097357;28;20053;-75
2022/01/07 00:18:23;;;;;;;14.52;4.03;;;;;;;-146.64;100.00;39910.88;5133596;27;20383;-75
2022/01/07 00:20:49;;;;;;;14.20;3.28;;;;;;;-146.64;100.00;39841.28;5109386;27;20613;-76
2022/01/07 00:23:14;;;;;;;8.63;2.70;;;;;;;-146.64;100.00;39898.59;5117726;27;20062;-76
2022/01/07 00:25:39;;;;;;;15.93;3.75;;;;;;;-146.64;100.00;39874.03;5133383;27;20032;-76
2022/01/07 00:28:05;;;;;;;14.00;3.97;;;;;;;-146.64;100.00;39882.22;5118882;27;20036;-76
2022/01/07 00:30:30;;;;;;;12.23;4.28;;;;;;;-146.64;100.00;39894.50;5111011;27;20379;-76
2022/01/07 00:32:56;;;;;;;8.60;3.17;;;;;;;-146.64;100.00;39898.59;5108180;27;20298;-76
2022/01/07 00:35:21;;;;;;;13.13;3.00;;;;;;;-146.64;100.00;39876.09;5124100;27;20053;-75
2022/01/07 00:37:48;;;;;;;10.45;3.95;;;;;;;-146.64;100.00;39896.56;5096811;27;20072;-75
2022/01/07 00:40:16;;;;;;;7.30;4.07;;;;;;;-146.64;100.00;39892.47;5101636;27;20122;-75
2022/01/07 00:42:42;;;;;;;13.38;3.25;;;;;;;-146.64;100.00;39869.94;5112409;27;20024;-75
2022/01/07 00:45:08;;;;;;;10.95;3.75;;;;;;;-146.64;100.00;39904.75;5100655;27;20026;-75
2022/01/07 00:47:34;;;;;;;11.95;4.03;;;;;;;-146.64;100.00;39935.44;5112789;27;20466;-76
2022/01/07 00:49:59;;;;;;;16.33;4.47;;;;;;;-146.64;100.00;39925.22;5087899;27;20079;-76
2022/01/07 00:52:25;;;;;;;14.40;4.45;;;;;;;-146.64;100.00;39972.28;5106198;27;20061;-75
2022/01/07 00:54:50;;;;;;;12.13;3.75;;;;;;;-146.64;100.00;39904.75;5112388;27;20030;-76
2022/01/07 00:57:16;;;;;;;12.73;4.55;;;;;;;-146.64;100.00;40033.69;5108046;27;20034;-75
2022/01/07 00:59:42;;;;;;;12.23;4.53;;;;;;;-146.64;100.00;40045.97;5113966;27;20466;-76
2022/01/07 01:02:07;;;;;;;12.05;4.50;;;;;;;-146.64;100.00;40115.56;5096683;27;20382;-75
2022/01/07 01:04:33;;;;;;;7.38;4.57;;;;;;;-146.64;100.00;40031.66;5116654;27;20046;-75
2022/01/07 01:06:58;;;;;;;13.85;4.75;;;;;;;-146.64;100.00;40152.41;5085191;27;20027;-75
2022/01/07 01:09:23;;;;;;;20.02;4.78;;;;;;;-146.64;100.00;40199.50;5112123;27;20029;-76
2022/01/07 01:11:48;;;;;;;11.00;4.45;;;;;;;-146.64;100.00;40203.59;5132305;27;20126;-76
2022/01/07 01:14:14;;;;;;;12.43;4.85;;;;;;;-146.64;100.00;40234.31;5129387;27;20157;-76
2022/01/07 01:16:39;;;;;;;11.82;4.43;;;;;;;-146.64;100.00;40260.91;5136801;27;20076;-75
2022/01/07 01:19:08;;;;;;;13.77;4.13;;;;;;;-146.64;100.00;40340.75;5100934;27;20086;-76
2022/01/07 01:21:35;;;;;;;12.68;5.57;;;;;;;-146.64;100.00;40346.91;5123988;27;20115;-76
2022/01/07 01:24:01;;;;;;;22.80;4.75;;;;;;;-146.64;100.00;40410.34;5115100;27;20015;-76
2022/01/07 01:26:26;;;;;;;15.82;4.57;;;;;;;-146.64;100.00;40398.06;5133761;27;20031;-75
2022/01/07 01:28:52;;;;;;;14.05;4.45;;;;;;;-146.64;100.00;40406.25;5114397;27;20019;-76
2022/01/07 01:31:18;;;;;;;18.88;5.28;;;;;;;-146.64;100.00;40430.81;5098660;27;20027;-76
2022/01/07 01:33:45;;;;;;;16.17;4.43;;;;;;;-146.64;100.00;40453.34;5111130;27;20034;-77
2022/01/07 01:36:11;;;;;;;10.60;5.00;;;;;;;-146.64;100.00;40475.88;5115604;27;20497;-76
2022/01/07 01:38:37;;;;;;;14.02;4.80;;;;;;;-146.64;100.00;40520.91;5110643;27;20023;-76
2022/01/07 01:41:04;;;;;;;21.35;4.80;;;;;;;-146.64;100.00;40443.13;5111747;27;20046;-76
2022/01/07 01:43:29;;;;;;;12.70;4.75;;;;;;;-146.64;100.00;40473.81;5127043;27;20015;-76
2022/01/07 01:45:54;;;;;;;12.77;5.40;;;;;;;-146.64;100.00;40510.66;5134283;27;20137;-76
2022/01/07 01:48:20;;;;;;;15.48;5.55;;;;;;;-146.64;100.00;40576.19;5114294;27;20103;-76
2022/01/07 01:50:47;;;;;;;10.15;4.60;;;;;;;-146.64;100.00;40631.47;5099591;27;20047;-76
2022/01/07 01:53:13;;;;;;;15.27;5.07;;;;;;;-146.64;100.00;40619.19;5107063;28;20031;-76
2022/01/07 01:55:39;;;;;;;15.00;5.70;;;;;;;-146.64;100.00;40615.06;5100357;28;20035;-76
2022/01/07 01:58:05;;;;;;;21.00;5.75;;;;;;;-146.64;100.00;40582.31;5112914;27;20033;-76
2022/01/07 02:00:30;;;;;;;14.18;6.25;;;;;;;-146.64;100.00;40649.88;5112101;27;20015;-76
2022/01/07 02:02:56;;;;;;;15.30;5.32;;;;;;;-146.64;100.00;40705.16;5125629;27;20043;-76
2022/01/07 02:05:22;;;;;;;15.85;6.60;;;;;;;-146.64;100.00;40715.41;5105279;27;20163;-76
2022/01/07 02:07:47;;;;;;;13.63;6.13;;;;;;;-146.64;100.00;40766.59;5110015;27;20403;-76
2022/01/07 02:10:15;;;;;;;13.35;5.40;;;;;;;-146.64;100.00;40856.66;5105476;27;20027;-77
2022/01/07 02:12:41;;;;;;;20.15;5.72;;;;;;;-146.64;100.00;41016.38;5113978;27;20543;-76
2022/01/07 02:15:12;;;;;;;19.92;5.60;;;;;;;-146.64;100.00;41174.03;5107687;27;20034;-77
2022/01/07 02:17:43;;;;;;;16.77;5.43;;;;;;;-146.64;100.00;41147.41;5112842;27;20414;-75
2022/01/07 02:20:09;;;;;;;15.43;5.88;;;;;;;-146.64;100.00;41266.16;5104882;27;20032;-76
2022/01/07 02:22:34;;;;;;;15.37;6.23;;;;;;;-146.64;100.00;41315.31;5111402;27;20030;-76
2022/01/07 02:25:00;;;;;;;19.48;6.20;;;;;;;-146.64;100.00;41466.84;5107784;27;20263;-76
2022/01/07 02:27:25;;;;;;;13.88;6.18;;;;;;;-146.64;100.00;41716.66;5096510;27;20055;-76
2022/01/07 02:29:51;;;;;;;11.57;5.57;;;;;;;-146.64;100.00;41952.19;5102829;27;20057;-76
2022/01/07 02:32:18;;;;;;;16.60;6.27;;;;;;;-146.64;100.00;41933.75;5112075;27;20416;-76
2022/01/07 02:34:47;;;;;;;9.27;4.82;;;;;;;-146.64;100.00;41769.91;5093693;28;20280;-76
2022/01/07 02:37:13;;;;;;;13.50;5.57;;;;;;;-146.64;100.00;42113.97;5097047;27;20027;-76
2022/01/07 02:39:39;;;;;;;16.58;6.70;;;;;;;-146.64;100.00;42689.50;5113725;27;20102;-76
2022/01/07 02:42:05;;;;;;;15.55;6.53;;;;;;;-146.64;100.00;43494.59;5111299;27;20488;-76
2022/01/07 02:44:30;;;;;;;8.50;5.22;;;;;;;-146.64;100.00;43658.50;5122905;27;20060;-76
2022/01/07 02:46:55;;;;;;;12.90;5.88;;;;;;;-146.64;100.00;44144.13;5092718;27;20317;-77
2022/01/07 02:49:21;;;;;;;15.40;5.93;;;;;;;-146.64;100.00;44980.25;5125672;27;20073;-76
2022/01/07 02:51:46;;;;;;;14.52;7.05;;;;;;;-146.64;100.00;45519.31;5113276;27;20401;-77
2022/01/07 02:54:12;;;;;;;9.68;5.68;;;;;;;-146.64;100.00;46470.53;5096705;27;20023;-76
2022/01/07 02:56:38;;;;;;;14.10;6.88;;;;;;;-146.64;100.00;45777.59;5094315;28;20015;-75
2022/01/07 02:59:04;;;;;;;12.55;7.32;;;;;;;-146.64;100.00;45826.78;5096953;28;20023;-76
2022/01/07 03:01:30;;;;;;;15.68;6.45;;;;;;;-146.64;100.00;47268.19;5107338;27;20023;-77
2022/01/07 03:03:55;;;;;;;15.77;6.60;;;;;;;-146.64;100.00;48002.44;5098351;27;20039;-76
2022/01/07 03:06:21;;;;;;;15.70;7.35;;;;;;;-146.64;100.00;48201.41;5126629;27;20035;-76
2022/01/07 03:08:48;;;;;;;14.98;7.22;;;;;;;-146.64;100.00;47723.50;5127317;27;20177;-78
2022/01/07 03:11:13;;;;;;;15.38;7.43;;;;;;;-146.64;100.00;46261.41;5111661;28;20077;-76
2022/01/07 03:13:39;;;;;;;13.70;7.25;;;;;;;-146.64;100.00;46778.09;5110149;28;20446;-76
2022/01/07 03:16:04;;;;;;;12.43;6.90;;;;;;;-146.64;100.00;48921.44;5130473;27;20039;-76
2022/01/07 03:18:30;;;;;;;11.65;7.93;;;;;;;-146.64;100.00;49740.09;5109585;27;20015;-75
2022/01/07 03:20:57;;;;;;;11.23;7.63;;;;;;;-146.64;100.00;50462.47;5111180;27;20386;-75
2022/01/07 03:23:23;;;;;;;10.15;7.97;;;;;;;-146.64;100.00;51148.03;5109801;27;20130;-77
2022/01/07 03:25:48;;;;;;;12.00;8.80;;;;;;;-146.64;100.00;51558.63;5109383;27;20230;-77
2022/01/07 03:28:13;;;;;;;16.23;8.43;;;;;;;-146.64;100.00;51895.31;5130965;27;20102;-76
2022/01/07 03:30:39;;;;;;;13.95;7.57;;;;;;;-146.64;100.00;52106.78;5111931;28;20435;-76
2022/01/07 03:33:04;;;;;;;16.38;8.85;;;;;;;-146.64;100.00;51416.97;5094355;28;20039;-76
2022/01/07 03:35:30;;;;;;;13.25;8.48;;;;;;;-146.64;100.00;49822.19;5106665;27;20031;-76
2022/01/07 03:37:55;;;;;;;15.23;9.23;;;;;;;-146.64;100.00;50045.88;5094368;28;20516;-76
2022/01/07 03:40:21;;;;;;;13.70;8.93;;;;;;;-146.64;100.00;52675.59;5109652;28;20376;-78
2022/01/07 03:42:48;;;;;;;14.45;9.07;;;;;;;-146.64;100.00;54515.97;5077975;28;20440;-76
2022/01/07 03:45:14;;;;;;;16.33;9.32;;;;;;;-146.64;100.00;56357.25;5111306;27;20046;-76
2022/01/07 03:47:39;;;;;;;14.25;9.20;;;;;;;-146.64;100.00;57409.78;5096538;28;20049;-76
2022/01/07 03:50:06;;;;;;;15.85;9.52;;;;;;;-146.64;100.00;57936.13;5099362;28;20504;-76
2022/01/07 03:52:32;;;;;;;16.52;9.90;;;;;;;-146.64;100.00;56883.47;5112545;28;20039;-76
2022/01/07 03:54:57;;;;;;;16.58;9.50;;;;;;;-146.64;100.00;57936.13;5096429;28;20392;-76
2022/01/07 03:57:23;;;;;;;17.17;9.65;;;;;;;-146.64;100.00;56883.47;5099959;27;20035;-76
2022/01/07 03:59:50;;;;;;;16.13;10.15;;;;;;;-146.64;100.00;56883.47;5098324;28;20038;-77
2022/01/07 04:02:16;;;;;;;15.93;9.27;;;;;;;-146.64;100.00;58462.56;5129654;28;20427;-76
2022/01/07 04:04:41;;;;;;;18.15;11.07;;;;;;;-146.64;100.00;59778.97;5110904;28;20054;-75
2022/01/07 04:07:06;;;;;;;17.90;9.95;;;;;;;-146.64;100.00;58462.56;5094936;28;20039;-77
2022/01/07 04:09:32;;;;;;;13.35;9.23;;;;;;;-146.64;100.00;58199.34;5097591;28;20027;-76
2022/01/07 04:11:59;;;;;;;18.15;10.82;;;;;;;-146.64;100.00;58725.81;5096976;28;20028;-75
2022/01/07 04:14:25;;;;;;;14.23;9.10;;;;;;;-146.64;100.00;59778.97;5087547;27;20030;-76
2022/01/07 04:16:51;;;;;;;16.95;8.98;;;;;;;-146.64;100.00;59778.97;5095500;28;20031;-76
2022/01/07 04:19:16;;;;;;;19.20;8.85;;;;;;;-146.64;100.00;59515.66;5088990;27;20035;-76
2022/01/07 04:21:42;;;;;;;18.40;9.48;;;;;;;-146.64;100.00;59515.66;5099297;28;20024;-76
2022/01/07 04:24:07;;;;;;;15.55;8.82;;;;;;;-146.64;100.00;60305.66;5109884;27;20573;-76
2022/01/07 04:26:32;;;;;;;19.70;8.98;;;;;;;-146.64;100.00;60305.66;5121563;27;20081;-76
2022/01/07 04:28:57;;;;;;;16.48;9.00;;;;;;;-146.64;100.00;60305.66;5121224;27;20031;-76
2022/01/07 04:31:23;;;;;;;16.77;9.73;;;;;;;-146.64;100.00;60832.41;5098142;27;20019;-76
2022/01/07 04:33:48;;;;;;;19.63;10.48;;;;;;;-146.64;100.00;59778.97;5110770;27;20027;-76
2022/01/07 04:36:14;;;;;;;13.63;8.95;;;;;;;-146.64;100.00;61359.25;5100392;27;20015;-75
2022/01/07 04:38:39;;;;;;;15.23;9.85;;;;;;;-146.64;100.00;61886.13;5131848;27;20557;-76
2022/01/07 04:41:04;;;;;;;21.73;9.57;;;;;;;-146.64;100.00;61622.69;5095902;27;20050;-76
2022/01/07 04:43:29;;;;;;;19.13;10.45;;;;;;;-146.64;100.00;61095.81;5112159;27;20012;-76
2022/01/07 04:45:55;;;;;;;22.40;10.50;;;;;;;-146.64;100.00;60305.66;5101411;27;20054;-76
2022/01/07 04:48:20;;;;;;;21.25;9.48;;;;;;;-146.64;100.00;61886.13;5119042;27;20076;-76
2022/01/07 04:50:45;;;;;;;16.65;8.82;;;;;;;-146.64;100.00;61622.69;5120507;27;20150;-76
2022/01/07 04:53:11;;;;;;;16.98;9.65;;;;;;;-146.64;100.00;60042.31;5111748;27;20043;-76
2022/01/07 04:55:37;;;;;;;24.73;10.13;;;;;;;-146.64;100.00;59778.97;5099275;27;20042;-75
2022/01/07 04:58:08;;;;;;;20.00;10.00;;;;;;;-146.64;100.00;60305.66;5100273;27;20471;-76
2022/01/07 05:00:34;;;;;;;19.80;9.90;;;;;;;-146.64;100.00;57936.13;5104268;27;20038;-76
2022/01/07 05:02:59;;;;;;;15.60;10.05;;;;;;;-146.64;100.00;58199.34;5101744;27;20035;-76
2022/01/07 05:05:25;;;;;;;17.98;9.38;;;;;;;-146.64;100.00;57936.13;5107874;27;20027;-76
2022/01/07 05:07:51;;;;;;;16.45;9.50;;;;;;;-146.64;100.00;57672.94;5096717;28;20070;-76
2022/01/07 05:10:16;;;;;;;26.58;10.63;;;;;;;-146.64;100.00;57146.59;5108306;27;20115;-77
2022/01/07 05:12:42;;;;;;;18.42;9.85;;;;;;;-146.64;100.00;57936.13;5116970;27;20023;-75
2022/01/07 05:15:09;;;;;;;16.35;8.05;;;;;;;-146.64;100.00;56620.34;5113980;27;20032;-76
2022/01/07 05:17:34;;;;;;;17.67;9.50;;;;;;;-146.64;100.00;57409.78;5112985;27;20027;-75
2022/01/07 05:20:03;;;;;;;20.23;10.30;;;;;;;-146.64;100.00;58462.56;5099593;27;20034;-75
2022/01/07 05:22:28;;;;;;;26.80;9.77;;;;;;;-146.64;100.00;59252.38;5099617;27;20451;-75
2022/01/07 05:24:56;;;;;;;23.73;9.88;;;;;;;-146.64;100.00;58989.09;5121726;27;20103;-76
2022/01/07 05:27:22;;;;;;;13.68;9.70;;;;;;;-146.64;100.00;58462.56;5114861;27;20090;-76
2022/01/07 05:29:47;;;;;;;22.65;9.57;;;;;;;-146.64;100.00;60042.31;5102014;27;20078;-76
2022/01/07 05:32:13;;;;;;;20.23;9.88;;;;;;;-146.64;100.00;58989.09;5105101;27;20035;-76
2022/01/07 05:34:38;;;;;;;23.23;9.70;;;;;;;-146.64;100.00;58462.56;5110270;27;20031;-75
2022/01/07 05:37:04;;;;;;;21.52;9.55;;;;;;;-146.64;100.00;59778.97;5110631;27;20454;-76
2022/01/07 05:39:29;;;;;;;20.42;10.05;;;;;;;-146.64;100.00;60569.03;5099247;27;20085;-75
2022/01/07 05:41:55;;;;;;;21.27;10.43;;;;;;;-146.64;100.00;58725.81;5096418;27;20058;-76
2022/01/07 05:44:21;;;;;;;19.73;9.68;;;;;;;-146.64;100.00;58725.81;5123151;27;20475;-76
2022/01/07 05:46:47;;;;;;;19.73;9.30;;;;;;;-146.64;100.00;57936.13;5096509;27;20035;-76
2022/01/07 05:49:12;;;;;;;13.93;9.25;;;;;;;-146.64;100.00;57936.13;5102490;27;20099;-76
2022/01/07 05:51:41;;;;;;;21.17;9.40;;;;;;;-146.64;100.00;57409.78;5133097;27;20071;-75
2022/01/07 05:54:07;;;;;;;15.73;9.45;;;;;;;-146.64;100.00;56357.25;5114776;27;20027;-76
2022/01/07 05:56:33;;;;;;;16.40;9.70;;;;;;;-146.64;100.00;56357.25;5107894;27;20019;-76
2022/01/07 05:58:58;;;;;;;14.77;8.48;;;;;;;-146.64;100.00;56094.16;5107965;27;20513;-76
2022/01/07 06:01:23;;;;;;;21.33;9.13;;;;;;;-146.64;100.00;55831.06;5105302;27;20027;-75
2022/01/07 06:03:48;;;;;;;21.65;10.93;;;;;;;-146.64;100.00;56620.34;5085023;27;20038;-76
2022/01/07 06:06:14;;;;;;;20.55;9.75;;;;;;;-146.64;100.00;57146.59;5109657;27;20023;-76
2022/01/07 06:08:39;;;;;;;21.38;10.32;;;;;;;-146.64;100.00;57409.78;5092721;27;20031;-75
2022/01/07 06:11:04;;;;;;;24.80;10.30;;;;;;;-146.64;100.00;57146.59;5106481;27;20417;-77
2022/01/07 06:13:30;;;;;;;35.42;9.70;;;;;;;-146.64;100.00;57409.78;5107086;27;20024;-76
2022/01/07 06:15:55;;;;;;;18.95;8.90;;;;;;;-146.64;100.00;57409.78;5088226;27;20386;-76
2022/01/07 06:18:21;;;;;;;19.42;8.27;;;;;;;-146.64;100.00;58462.56;5127417;27;20067;-76
2022/01/07 06:20:46;;;;;;;19.00;8.98;;;;;;;-146.64;100.00;59778.97;5112141;27;20034;-76
2022/01/07 06:23:11;;;;;;;17.13;8.85;;;;;;;-146.64;100.00;59252.38;5095953;27;20098;-76
2022/01/07 06:25:37;;;;;;;20.35;8.80;;;;;;;-146.64;100.00;60042.31;5098967;27;20020;-76
2022/01/07 06:28:02;;;;;;;22.17;8.95;;;;;;;-146.64;100.00;60832.41;5104637;27;20033;-76
2022/01/07 06:30:27;;;;;;;22.40;9.25;;;;;;;-146.64;100.00;60832.41;5130012;27;20034;-76
2022/01/07 06:32:53;;;;;;;21.70;9.02;;;;;;;-146.64;100.00;60569.03;5103607;27;20035;-76
2022/01/07 06:35:19;;;;;;;19.58;9.35;;;;;;;-146.64;100.00;60832.41;5110323;27;20035;-76
2022/01/07 06:37:44;;;;;;;17.85;9.40;;;;;;;-146.64;100.00;59252.38;5118717;27;20411;-76
2022/01/07 06:40:10;;;;;;;16.25;8.50;;;;;;;-146.64;100.00;57672.94;5133969;27;20110;-75
2022/01/07 06:42:35;;;;;;;18.80;8.95;;;;;;;-146.64;100.00;55568.03;5103024;27;20038;-76
2022/01/07 06:45:01;;;;;;;20.70;9.05;;;;;;;-146.64;100.00;56357.25;5104559;28;20042;-75
2022/01/07 06:47:26;;;;;;;20.85;9.30;;;;;;;-146.64;100.00;56620.34;5085474;27;20053;-75
2022/01/07 06:49:51;;;;;;;19.38;8.93;;;;;;;-146.64;100.00;56883.47;5106531;27;20023;-75
2022/01/07 06:52:17;;;;;;;15.57;8.27;;;;;;;-146.64;100.00;55305.00;5114854;27;20045;-76
2022/01/07 06:54:42;;;;;;;21.73;8.23;;;;;;;-146.64;100.00;55041.97;5115120;28;20026;-77
2022/01/07 06:57:07;;;;;;;19.17;7.75;;;;;;;-146.64;100.00;55831.06;5095305;28;20471;-76
2022/01/07 06:59:33;;;;;;;14.23;7.88;;;;;;;-146.64;100.00;55568.03;5104545;27;20031;-76
2022/01/07 07:01:58;;;;;;;19.23;7.97;;;;;;;-146.64;100.00;53727.13;5095870;27;20026;-75
2022/01/07 07:04:24;;;;;;;15.98;7.35;;;;;;;-146.64;100.00;55041.97;5094446;27;20027;-76
2022/01/07 07:06:50;;;;;;;19.48;7.80;;;;;;;-146.64;100.00;55831.06;5122773;27;20032;-76
2022/01/07 07:09:17;;;;;;;20.25;8.35;;;;;;;-146.64;100.00;56620.34;5106566;27;20076;-75
2022/01/07 07:11:43;;;;;;;;;;;;;;;-146.64;100.00;57146.59;5099450;27;20038;-76
2022/01/07 07:14:09;;;;;;;13.10;6.72;;;;;;;-146.64;100.00;57936.13;5097439;27;20402;-76
2022/01/07 07:16:34;;;;;;;27.08;7.43;;;;;;;-146.64;100.00;57672.94;5098377;27;20065;-77
2022/01/07 07:18:59;;;;;;;12.52;6.82;;;;;;;-146.64;100.00;59252.38;5091912;28;20122;-75
2022/01/07 07:21:25;;;;;;;19.30;7.00;;;;;;;-146.64;100.00;60305.66;5124554;27;20081;-76
2022/01/07 07:23:50;;;;;;;17.88;7.28;;;;;;;-146.64;100.00;60569.03;5116058;27;20016;-76
2022/01/07 07:26:16;;;;;;;19.33;8.15;;;;;;;-146.64;100.00;61622.69;5115485;27;20026;-75
2022/01/07 07:28:42;;;;;;;21.27;7.47;;;;;;;-146.64;100.00;61886.13;5130279;27;20043;-76
2022/01/07 07:31:12;;;;;;;20.17;7.90;;;;;;;-146.64;100.00;59778.97;5099582;27;20398;-75
2022/01/07 07:36:27;;;;;;;20.08;7.25;;;;;;;-146.64;100.00;59515.66;5107566;28;20034;-76
2022/01/07 07:38:53;;;;;;;16.58;8.40;;;;;;;-146.64;100.00;59515.66;5111254;28;20394;-76
2022/01/07 07:41:19;;;;;;;19.50;7.55;;;;;;;-146.64;100.00;59252.38;5112035;28;20366;-76
2022/01/07 07:43:47;;;;;;;25.48;8.10;;;;;;;-146.64;100.00;58725.81;5114159;28;20019;-78
2022/01/07 07:46:12;;;;;;;15.35;7.55;;;;;;;-146.64;100.00;56883.47;5115818;28;20394;-76
2022/01/07 07:48:37;;;;;;;25.73;9.18;;;;;;;-146.64;100.00;55831.06;5108321;28;20046;-75
2022/01/07 07:51:03;;;;;;;18.95;8.15;;;;;;;-146.64;100.00;55568.03;5111303;28;20559;-76
2022/01/07 07:53:28;;;;;;;21.05;8.23;;;;;;;-146.64;100.00;54778.97;5106731;28;20031;-75
2022/01/07 07:55:54;;;;;;;20.25;8.13;;;;;;;-146.64;100.00;55305.00;5107689;27;20019;-76
2022/01/07 07:58:20;;;;;;;18.08;8.70;;;;;;;-146.64;100.00;56094.16;5100684;27;20379;-77
2022/01/07 08:00:46;;;;;;;21.20;8.20;;;;;;;-146.64;100.00;57146.59;5110450;27;20148;-76
2022/01/07 08:03:12;;;;;;;15.73;7.13;;;;;;;-146.64;100.00;55305.00;5097178;27;20031;-76
2022/01/07 08:05:37;;;;;;;15.75;8.00;;;;;;;-146.64;100.00;56094.16;5092454;28;20019;-76
2022/01/07 08:08:02;;;;;;;18.02;7.43;;;;;;;-146.64;100.00;56357.25;5132005;27;20113;-76
2022/01/07 08:10:28;;;;;;;17.27;7.15;;;;;;;-146.64;100.00;56357.25;5099149;27;20384;-76
2022/01/07 08:13:25;;;;;;;20.25;7.63;;;;;;;-146.64;100.00;55305.00;5127998;27;20110;-76
2022/01/07 08:15:59;;;;;;;28.65;8.32;;;;;;;-146.64;100.00;54778.97;5115327;27;20106;-76
2022/01/07 08:18:25;;;;;;;16.58;7.20;;;;;;;-146.64;100.00;54515.97;5116536;27;20035;-75
2022/01/07 08:20:51;;;;;;;23.13;7.53;;;;;;;-146.64;100.00;53727.13;5115128;27;20030;-75
2022/01/07 08:23:19;;;;;;;18.15;6.28;;;;;;;-146.64;100.00;54253.00;5123855;27;20027;-76
2022/01/07 08:25:44;;;;;;;24.17;7.38;;;;;;;-146.64;100.00;53727.13;5130193;27;20053;-76
2022/01/07 08:28:11;;;;;;;17.75;6.88;;;;;;;-146.64;100.00;54778.97;5097257;28;20019;-76
2022/01/07 08:30:37;;;;;;;;;;;;;;;-146.64;100.00;53718.91;5112149;27;20104;-76
2022/01/07 08:35:49;;;;;;;17.85;6.53;;;;;;;-146.64;100.00;55305.00;5121559;27;20034;-76
2022/01/07 08:38:15;;;;;;;18.77;7.07;;;;;;;-146.64;100.00;56357.25;5098139;28;20031;-76
2022/01/07 08:40:40;;;;;;;24.98;6.53;;;;;;;-146.64;100.00;56883.47;5107872;27;20045;-75
2022/01/07 08:43:06;;;;;;;17.50;8.48;;;;;;;-146.64;100.00;56883.47;5099598;27;20118;-76
2022/01/07 08:45:31;;;;;;;13.25;6.78;;;;;;;-146.64;100.00;56620.34;5117382;27;20022;-76
2022/01/07 08:47:58;;;;;;;15.40;6.80;;;;;;;-146.64;100.00;57409.78;5118429;27;20023;-76
2022/01/07 08:50:23;;;;;;;13.52;8.20;;;;;;;-146.64;100.00;57146.59;5116896;27;20019;-76
2022/01/07 08:52:50;;;;;;;23.33;6.97;;;;;;;-146.64;100.00;56883.47;5134428;27;20019;-76
2022/01/07 08:55:15;;;;;;;16.83;7.07;;;;;;;-146.64;100.00;57409.78;5133089;27;20034;-75
2022/01/07 08:57:40;;;;;;;16.77;6.57;;;;;;;-146.64;100.00;57146.59;5099086;27;20483;-75
2022/01/07 09:00:06;;;;;;;19.33;7.60;;;;;;;-146.64;100.00;56883.47;5091723;27;20088;-75
2022/01/07 09:02:32;;;;;;;21.00;7.05;;;;;;;-146.64;100.00;58199.34;5129724;27;20030;-75
2022/01/07 09:04:57;;;;;;;16.02;6.93;;;;;;;-146.64;100.00;56883.47;5131193;27;20047;-75
2022/01/07 09:07:22;;;;;;;25.15;6.68;;;;;;;-146.64;100.00;56883.47;5132663;27;20029;-75
2022/01/07 09:09:48;;;;;;;15.88;6.35;;;;;;;-146.64;100.00;56094.16;5115222;27;20101;-76
2022/01/07 09:12:13;;;;;;;23.15;6.80;;;;;;;-146.64;100.00;55568.03;5115602;27;20114;-75
2022/01/07 09:14:39;;;;;;;18.65;6.55;;;;;;;-146.64;100.00;54778.97;5098074;27;20050;-75
2022/01/07 09:17:05;;;;;;;15.40;6.13;;;;;;;-146.64;100.00;53990.06;5112854;27;20023;-76
2022/01/07 09:19:31;;;;;;;10.48;5.93;;;;;;;-146.64;100.00;54253.00;5109252;27;20523;-75
2022/01/07 09:21:56;;;;;;;27.25;7.57;;;;;;;-146.64;100.00;53443.69;5133914;27;20027;-75
2022/01/07 09:24:22;;;;;;;20.52;5.40;;;;;;;-146.64;100.00;49830.41;5098262;27;20038;-75
2022/01/07 09:26:48;;;;;;;23.25;6.40;;;;;;;-146.64;100.00;47996.28;5114941;27;20113;-75
2022/01/07 09:29:13;;;;;;;15.27;5.55;;;;;;;-146.64;100.00;47516.34;5114742;27;20023;-75
2022/01/07 09:31:39;;;;;;;16.92;5.35;;;;;;;-146.64;100.00;48377.81;5097934;27;20080;-76
2022/01/07 09:34:05;;;;;;;20.13;5.65;;;;;;;-146.64;100.00;47155.41;5098176;27;20079;-75
2022/01/07 09:36:30;;;;;;;10.77;5.55;;;;;;;-146.64;100.00;46614.06;5115651;27;20096;-75
2022/01/07 09:38:56;;;;;;;19.48;6.38;;;;;;;-146.64;100.00;46470.53;5098113;27;20056;-75
2022/01/07 09:41:21;;;;;;;18.83;6.03;;;;;;;-146.64;100.00;46331.13;5134020;27;20586;-75
2022/01/07 09:43:47;;;;;;;17.02;5.95;;;;;;;-146.64;100.00;45570.56;5111696;27;20504;-76
2022/01/07 09:46:14;;;;;;;18.55;5.15;;;;;;;-146.64;100.00;45732.50;5114393;27;20034;-75
2022/01/07 09:48:39;;;;;;;18.63;5.55;;;;;;;-146.64;100.00;43793.72;5097592;27;20023;-75
2022/01/07 09:51:04;;;;;;;15.60;4.68;;;;;;;-146.64;100.00;42654.69;5086091;28;20051;-75
2022/01/07 09:53:31;;;;;;;14.35;5.30;;;;;;;-146.64;100.00;42265.53;5092293;28;20035;-75
2022/01/07 09:55:56;;;;;;;20.93;4.93;;;;;;;-146.64;100.00;41831.34;5073971;28;20365;-75
2022/01/07 09:58:21;;;;;;;12.00;5.22;;;;;;;-146.64;100.00;41679.81;5091090;28;20062;-75
2022/01/07 10:00:47;;;;;;;15.80;4.97;;;;;;;-146.64;100.00;41479.13;5068336;28;20545;-75
2022/01/07 10:03:15;;;;;;;17.10;5.65;;;;;;;-146.64;100.00;41159.69;5070605;28;20060;-76
2022/01/07 10:05:49;;;;;;;12.98;4.75;;;;;;;-146.64;100.00;40875.09;5082193;28;20451;-75
2022/01/07 10:08:28;;;;;;;18.33;4.45;;;;;;;-146.64;100.00;40719.50;5090749;28;20024;-75
2022/01/07 10:11:14;;;;;;;14.15;4.53;;;;;;;-146.64;100.00;40576.19;5073585;28;20024;-75
2022/01/07 10:13:41;;;;;;;14.35;4.43;;;;;;;-146.64;100.00;40516.81;5091508;28;20081;-76
2022/01/07 10:16:16;;;;;;;15.20;3.92;;;;;;;-146.64;100.00;40576.19;5089896;28;20487;-76
2022/01/07 10:18:42;;;;;;;11.10;3.67;;;;;;;-146.64;100.00;40525.00;5075531;28;20409;-75
2022/01/07 10:21:09;;;;;;;15.30;4.63;;;;;;;-146.64;100.00;40426.72;5090236;28;20035;-75
2022/01/07 10:23:35;;;;;;;;;;;;;;;-146.64;100.00;40303.91;5090410;28;20028;-76
2022/01/07 10:26:00;;;;;;;14.70;3.15;;;;;;;-146.64;100.00;40230.22;5073912;28;20374;-75
2022/01/07 10:28:33;;;;;;;16.30;3.47;;;;;;;-146.64;100.00;40179.03;5061277;28;20028;-75
2022/01/07 10:31:00;;;;;;;13.73;3.35;;;;;;;-146.64;100.00;40078.72;5089355;28;20077;-76
2022/01/07 10:33:28;;;;;;;8.38;2.65;;;;;;;-146.64;100.00;40027.56;5090189;28;20020;-75
2022/01/07 10:36:18;;;;;;;15.90;3.63;;;;;;;-146.64;100.00;39996.84;5090065;28;20051;-75
2022/01/07 10:38:47;;;;;;;14.00;3.97;;;;;;;-146.64;100.00;40054.16;5087057;28;20089;-75
2022/01/07 10:41:13;;;;;;;20.20;4.00;;;;;;;-146.64;100.00;40041.88;5091488;28;20035;-75
2022/01/07 10:43:39;;;;;;;17.33;4.10;;;;;;;-146.64;100.00;40039.84;5069421;28;20042;-76
2022/01/07 10:46:07;;;;;;;12.38;4.18;;;;;;;-146.64;100.00;40060.31;5072818;28;20114;-75
2022/01/07 10:48:35;;;;;;;13.43;3.53;;;;;;;-146.64;100.00;40058.25;5091196;28;20387;-75
2022/01/07 10:51:05;;;;;;;12.55;3.17;;;;;;;-146.64;100.00;40017.31;5097081;28;20044;-75
2022/01/07 10:53:31;;;;;;;20.88;3.58;;;;;;;-146.64;100.00;40058.25;5111055;27;20023;-75
2022/01/07 10:56:15;;;;;;;17.05;4.45;;;;;;;-146.64;100.00;40025.50;5110158;28;20051;-75
2022/01/07 10:58:43;;;;;;;14.48;3.63;;;;;;;-146.64;100.00;40005.03;5109116;28;20029;-75
2022/01/07 11:01:29;;;;;;;23.85;3.10;;;;;;;-146.64;100.00;40007.09;5109897;28;20028;-75
2022/01/07 11:03:57;;;;;;;15.02;2.85;;;;;;;-146.64;100.00;40000.94;5092761;28;20024;-75